Mary Ann — WCY5683 — position and weather

sailwx.info

Track history (hours):
 
Tides and Currents Weather Stations Pressure Air Temp Water Temp Dewpoint Dewpoint Depression Visibility Wind Speed Wind Dir Waves Ship Positions

Mary Ann

Owner: GETZ, TIMOTHY M, SEAVILLE, NJ. More information available from US FCC via Universal Licensing System and Coast Guard Vessel Documentation Center.

Last reported at 2016-Feb-03 20:33 UTC. Time now 2016-Feb-07 17:31 UTC.
Position N 34°43' W 076°40'.

Length 22 m.

Type: Fishing. MMSI: 338382000.

Date/timePositionNaut miles runAvg speedWind from/ knotsBaromVisibWave heightAir tempDewpointWater temp
2016-Feb-03 20:33N 34°43' W 076°40'0 0.0
2016-Feb-03 19:33N 34°43' W 076°40'0 0.1
2016-Feb-03 18:31N 34°43' W 076°40'0 0.0
2016-Feb-03 17:31N 34°43' W 076°40'0 0.0
2016-Feb-03 16:31N 34°43' W 076°40'0 0.0
2016-Feb-03 15:31N 34°43' W 076°40'0 0.0
2016-Feb-03 14:31N 34°43' W 076°40'0 0.0
2016-Feb-03 13:31N 34°43' W 076°40'0 0.0
2016-Feb-03 12:31N 34°43' W 076°40'0 0.0
2016-Feb-03 11:31N 34°43' W 076°40'0 0.0
2016-Feb-03 10:31N 34°43' W 076°40'0 0.0
2016-Feb-03 09:31N 34°43' W 076°40'0 0.0
2016-Feb-03 08:31N 34°43' W 076°40'3 2.7
2016-Feb-03 07:33N 34°41' W 076°40'  
2016-Jan-30 14:23N 34°35' W 076°36'6 7.6
2016-Jan-30 13:33N 34°40' W 076°40'3 3.1
2016-Jan-30 12:34N 34°43' W 076°40'0 0.0
2016-Jan-30 11:34N 34°43' W 076°40'0 0.0
2016-Jan-30 10:34N 34°43' W 076°40'0 0.0
2016-Jan-30 09:31N 34°43' W 076°40'0 0.0
2016-Jan-30 08:34N 34°43' W 076°40'0 0.0
2016-Jan-30 07:31N 34°43' W 076°40'0 0.0
2016-Jan-30 06:34N 34°43' W 076°40'0 0.0
2016-Jan-30 05:34N 34°43' W 076°40'0 0.0
2016-Jan-30 04:34N 34°43' W 076°40'0 0.0
2016-Jan-30 03:31N 34°43' W 076°40'0 0.0
2016-Jan-30 02:34N 34°43' W 076°40'0 0.0
2016-Jan-30 01:31N 34°43' W 076°40'0 0.0
2016-Jan-30 00:34N 34°43' W 076°40'0 0.0
2016-Jan-29 23:31N 34°43' W 076°40'0 0.0
2016-Jan-29 22:33N 34°43' W 076°40'0 0.0
2016-Jan-29 21:33N 34°43' W 076°40'0 0.0
2016-Jan-29 20:33N 34°43' W 076°40'0 0.0
2016-Jan-29 19:33N 34°43' W 076°40'0 0.0
2016-Jan-29 18:33N 34°43' W 076°40'0 0.0
2016-Jan-29 17:33N 34°43' W 076°40'0 0.0
2016-Jan-29 16:33N 34°43' W 076°40'0 0.1
2016-Jan-29 15:31N 34°43' W 076°40'0 0.0
2016-Jan-29 14:31N 34°43' W 076°40'0 0.0
2016-Jan-29 13:31N 34°43' W 076°40'0 0.0
2016-Jan-29 12:31N 34°43' W 076°40'0 0.0
2016-Jan-29 11:31N 34°43' W 076°40'0 0.0
2016-Jan-29 10:31N 34°43' W 076°40'0 0.0
2016-Jan-29 09:31N 34°43' W 076°40'0 0.0
2016-Jan-29 08:31N 34°43' W 076°40'0 0.0
2016-Jan-29 07:31N 34°43' W 076°40'0 0.0
2016-Jan-29 06:31N 34°43' W 076°40'0 0.0
2016-Jan-29 05:31N 34°43' W 076°40'0 0.0
2016-Jan-29 04:31N 34°43' W 076°40'0 0.0
2016-Jan-29 03:28N 34°43' W 076°40'0 0.0
2016-Jan-28 23:32N 34°43' W 076°40'0 0.0
2016-Jan-28 22:31N 34°43' W 076°40'0 0.0
2016-Jan-28 21:31N 34°43' W 076°40'0 0.0
2016-Jan-28 20:31N 34°43' W 076°40'0 0.0
2016-Jan-28 19:31N 34°43' W 076°40'0 0.0
2016-Jan-28 18:31N 34°43' W 076°40'0 0.0
2016-Jan-28 17:31N 34°43' W 076°40'0 0.0
2016-Jan-28 16:31N 34°43' W 076°40'0 0.0
2016-Jan-28 15:34N 34°43' W 076°40'0 0.0
2016-Jan-28 14:31N 34°43' W 076°40'0 0.0
2016-Jan-28 13:34N 34°43' W 076°40'0 0.0
2016-Jan-28 12:31N 34°43' W 076°40'0 0.0
2016-Jan-28 06:11N 34°43' W 076°40'0 0.0
2016-Jan-28 05:33N 34°43' W 076°40'0 0.0
2016-Jan-28 04:33N 34°43' W 076°40'0 0.0
2016-Jan-28 03:33N 34°43' W 076°40'0 0.2
2016-Jan-28 02:33N 34°43' W 076°40'4 3.8
2016-Jan-28 01:33N 34°40' W 076°40'5 5.5
2016-Jan-28 00:33N 34°34' W 076°39'  
2016-Jan-24 23:33N 34°36' W 076°43'7 6.7
2016-Jan-24 22:33N 34°42' W 076°40'2 1.6
2016-Jan-24 21:31N 34°43' W 076°40'  
Track history (hours):
 
Tides and Currents Weather Stations Pressure Air Temp Water Temp Dewpoint Dewpoint Depression Visibility Wind Speed Wind Dir Waves Ship Positions

Mary Ann

Owner: GETZ, TIMOTHY M, SEAVILLE, NJ. More information available from US FCC via Universal Licensing System and Coast Guard Vessel Documentation Center.

Last reported at 2016-Feb-03 20:33 UTC. Time now 2016-Feb-07 17:31 UTC.
Position N 34°43' W 076°40'.

Length 22 m.

Type: Fishing. MMSI: 338382000.

Date/timePositionNaut miles runAvg speedWind from/ knotsBaromVisibWave heightAir tempDewpointWater temp
2016-Feb-03 20:33N 34°43' W 076°40'0 0.0
2016-Feb-03 19:33N 34°43' W 076°40'0 0.1
2016-Feb-03 18:31N 34°43' W 076°40'0 0.0
2016-Feb-03 17:31N 34°43' W 076°40'0 0.0
2016-Feb-03 16:31N 34°43' W 076°40'0 0.0
2016-Feb-03 15:31N 34°43' W 076°40'0 0.0
2016-Feb-03 14:31N 34°43' W 076°40'0 0.0
2016-Feb-03 13:31N 34°43' W 076°40'0 0.0
2016-Feb-03 12:31N 34°43' W 076°40'0 0.0
2016-Feb-03 11:31N 34°43' W 076°40'0 0.0
2016-Feb-03 10:31N 34°43' W 076°40'0 0.0
2016-Feb-03 09:31N 34°43' W 076°40'0 0.0
2016-Feb-03 08:31N 34°43' W 076°40'3 2.7
2016-Feb-03 07:33N 34°41' W 076°40'  
2016-Jan-30 14:23N 34°35' W 076°36'6 7.6
2016-Jan-30 13:33N 34°40' W 076°40'3 3.1
2016-Jan-30 12:34N 34°43' W 076°40'0 0.0
2016-Jan-30 11:34N 34°43' W 076°40'0 0.0
2016-Jan-30 10:34N 34°43' W 076°40'0 0.0
2016-Jan-30 09:31N 34°43' W 076°40'0 0.0
2016-Jan-30 08:34N 34°43' W 076°40'0 0.0
2016-Jan-30 07:31N 34°43' W 076°40'0 0.0
2016-Jan-30 06:34N 34°43' W 076°40'0 0.0
2016-Jan-30 05:34N 34°43' W 076°40'0 0.0
2016-Jan-30 04:34N 34°43' W 076°40'0 0.0
2016-Jan-30 03:31N 34°43' W 076°40'0 0.0
2016-Jan-30 02:34N 34°43' W 076°40'0 0.0
2016-Jan-30 01:31N 34°43' W 076°40'0 0.0
2016-Jan-30 00:34N 34°43' W 076°40'0 0.0
2016-Jan-29 23:31N 34°43' W 076°40'0 0.0
2016-Jan-29 22:33N 34°43' W 076°40'0 0.0
2016-Jan-29 21:33N 34°43' W 076°40'0 0.0
2016-Jan-29 20:33N 34°43' W 076°40'0 0.0
2016-Jan-29 19:33N 34°43' W 076°40'0 0.0
2016-Jan-29 18:33N 34°43' W 076°40'0 0.0
2016-Jan-29 17:33N 34°43' W 076°40'0 0.0
2016-Jan-29 16:33N 34°43' W 076°40'0 0.1
2016-Jan-29 15:31N 34°43' W 076°40'0 0.0
2016-Jan-29 14:31N 34°43' W 076°40'0 0.0
2016-Jan-29 13:31N 34°43' W 076°40'0 0.0
2016-Jan-29 12:31N 34°43' W 076°40'0 0.0
2016-Jan-29 11:31N 34°43' W 076°40'0 0.0
2016-Jan-29 10:31N 34°43' W 076°40'0 0.0
2016-Jan-29 09:31N 34°43' W 076°40'0 0.0
2016-Jan-29 08:31N 34°43' W 076°40'0 0.0
2016-Jan-29 07:31N 34°43' W 076°40'0 0.0
2016-Jan-29 06:31N 34°43' W 076°40'0 0.0
2016-Jan-29 05:31N 34°43' W 076°40'0 0.0
2016-Jan-29 04:31N 34°43' W 076°40'0 0.0
2016-Jan-29 03:28N 34°43' W 076°40'0 0.0
2016-Jan-28 23:32N 34°43' W 076°40'0 0.0
2016-Jan-28 22:31N 34°43' W 076°40'0 0.0
2016-Jan-28 21:31N 34°43' W 076°40'0 0.0
2016-Jan-28 20:31N 34°43' W 076°40'0 0.0
2016-Jan-28 19:31N 34°43' W 076°40'0 0.0
2016-Jan-28 18:31N 34°43' W 076°40'0 0.0
2016-Jan-28 17:31N 34°43' W 076°40'0 0.0
2016-Jan-28 16:31N 34°43' W 076°40'0 0.0
2016-Jan-28 15:34N 34°43' W 076°40'0 0.0
2016-Jan-28 14:31N 34°43' W 076°40'0 0.0
2016-Jan-28 13:34N 34°43' W 076°40'0 0.0
2016-Jan-28 12:31N 34°43' W 076°40'0 0.0
2016-Jan-28 06:11N 34°43' W 076°40'0 0.0
2016-Jan-28 05:33N 34°43' W 076°40'0 0.0
2016-Jan-28 04:33N 34°43' W 076°40'0 0.0
2016-Jan-28 03:33N 34°43' W 076°40'0 0.2
2016-Jan-28 02:33N 34°43' W 076°40'4 3.8
2016-Jan-28 01:33N 34°40' W 076°40'5 5.5
2016-Jan-28 00:33N 34°34' W 076°39'  
2016-Jan-24 23:33N 34°36' W 076°43'7 6.7
2016-Jan-24 22:33N 34°42' W 076°40'2 1.6
2016-Jan-24 21:31N 34°43' W 076°40'  

Dump ship's entire track history